Time;durP1;ratioP1;P1;durP2;ratioP2;P2;SDS_P1;SDS_P2;PMS_P1;PMS_P2;Temp;Humidity;BMP_temperature;BMP_pressure;BME280_temperature;BME280_humidity;BME280_pressure;Samples;Min_cycle;Max_cycle;Signal;HPM_P1;HPM_P2
2022/01/31 00:02:04;;;;;;;21.27;3.72;;;;;;;;;;6250191;22;20648;-80
2022/01/31 00:04:29;;;;;;;27.95;4.18;;;;;;;;;;6224124;22;20407;-81
2022/01/31 00:06:56;;;;;;;41.00;4.70;;;;;;;;;;6249848;22;20004;-80
2022/01/31 00:09:23;;;;;;;29.30;3.70;;;;;;;;;;6250112;22;20032;-80
2022/01/31 00:12:24;;;;;;;33.13;4.45;;;;;;;;;;6225076;22;20008;-81
2022/01/31 00:14:43;;;;;;;30.05;4.65;;;;;;;;;;6233103;22;20031;-80
2022/01/31 00:17:09;;;;;;;44.15;5.03;;;;;;;;;;6250552;22;20011;-80
2022/01/31 00:19:36;;;;;;;24.02;4.82;;;;;;;;;;6227455;22;20023;-80
2022/01/31 00:22:02;;;;;;;34.80;4.03;;;;;;;;;;6230208;23;19996;-80
2022/01/31 00:24:28;;;;;;;31.42;4.70;;;;;;;;;;6277306;22;19999;-81
2022/01/31 00:26:53;;;;;;;38.97;4.10;;;;;;;;;;6260613;22;20196;-81
2022/01/31 00:29:19;;;;;;;40.00;5.63;;;;;;;;;;6229266;22;20339;-81
2022/01/31 00:31:45;;;;;;;34.95;4.03;;;;;;;;;;6276938;22;20000;-80
2022/01/31 00:34:10;;;;;;;36.60;4.07;;;;;;;;;;6276578;22;20082;-81
2022/01/31 00:36:36;;;;;;;35.80;3.53;;;;;;;;;;6276762;22;20030;-80
2022/01/31 00:39:01;;;;;;;38.70;4.88;;;;;;;;;;6276740;22;20010;-80
2022/01/31 00:41:27;;;;;;;29.40;3.90;;;;;;;;;;6287827;22;20003;-82
2022/01/31 00:44:13;;;;;;;36.03;4.05;;;;;;;;;;6267653;22;20004;-80
2022/01/31 00:46:42;;;;;;;28.10;4.10;;;;;;;;;;6283574;22;20004;-81
2022/01/31 00:49:35;;;;;;;24.35;4.57;;;;;;;;;;6276695;22;20008;-80
2022/01/31 00:52:01;;;;;;;28.30;4.63;;;;;;;;;;6255168;22;19996;-80
2022/01/31 00:54:26;;;;;;;28.50;5.15;;;;;;;;;;6224254;22;20012;-80
2022/01/31 00:56:52;;;;;;;29.95;5.07;;;;;;;;;;6276786;22;20312;-81
2022/01/31 00:59:17;;;;;;;20.15;4.20;;;;;;;;;;6199503;22;20007;-80
2022/01/31 01:01:43;;;;;;;22.48;4.60;;;;;;;;;;6224500;22;20122;-81
2022/01/31 01:04:08;;;;;;;40.15;4.72;;;;;;;;;;6229456;22;20339;-81
2022/01/31 01:06:34;;;;;;;42.00;4.50;;;;;;;;;;6276570;22;20057;-80
2022/01/31 01:08:59;;;;;;;29.33;4.47;;;;;;;;;;6224567;22;20008;-81
2022/01/31 01:11:25;;;;;;;39.50;4.45;;;;;;;;;;6224040;22;20015;-80
2022/01/31 01:13:50;;;;;;;18.60;3.60;;;;;;;;;;6276141;22;20011;-80
2022/01/31 01:16:16;;;;;;;40.10;5.53;;;;;;;;;;6249063;22;20026;-80
2022/01/31 01:18:41;;;;;;;24.98;4.13;;;;;;;;;;6249986;22;20010;-80
2022/01/31 01:21:07;;;;;;;22.17;4.43;;;;;;;;;;6249640;22;20015;-80
2022/01/31 01:23:32;;;;;;;42.13;5.50;;;;;;;;;;6250019;22;20007;-81
2022/01/31 01:25:58;;;;;;;29.63;4.50;;;;;;;;;;6284865;22;20078;-81
2022/01/31 01:28:25;;;;;;;30.08;4.25;;;;;;;;;;6276020;22;20006;-81
2022/01/31 01:30:50;;;;;;;20.30;3.10;;;;;;;;;;6224089;22;20003;-80
2022/01/31 01:33:22;;;;;;;15.45;3.60;;;;;;;;;;6276112;22;20007;-80
2022/01/31 01:35:49;;;;;;;32.75;4.15;;;;;;;;;;6250470;22;20356;-81
2022/01/31 01:38:17;;;;;;;28.77;3.65;;;;;;;;;;6250236;22;20006;-80
2022/01/31 01:40:43;;;;;;;22.63;4.15;;;;;;;;;;6224769;22;20003;-80
2022/01/31 01:43:08;;;;;;;19.38;3.35;;;;;;;;;;6224513;22;20056;-80
2022/01/31 01:45:34;;;;;;;34.28;3.97;;;;;;;;;;6225720;22;20030;-80
2022/01/31 01:48:00;;;;;;;21.75;4.18;;;;;;;;;;6280228;22;20434;-80
2022/01/31 01:50:25;;;;;;;30.83;4.82;;;;;;;;;;6248818;22;20003;-80
2022/01/31 01:52:52;;;;;;;27.08;4.45;;;;;;;;;;6223817;22;20466;-80
2022/01/31 01:55:17;;;;;;;30.27;6.28;;;;;;;;;;6248977;22;19999;-81
2022/01/31 01:57:43;;;;;;;31.90;4.95;;;;;;;;;;6223768;22;20413;-80
2022/01/31 02:00:15;;;;;;;21.80;3.38;;;;;;;;;;6198308;22;20057;-80
2022/01/31 02:02:43;;;;;;;18.95;3.92;;;;;;;;;;6225289;22;20381;-80
2022/01/31 02:05:08;;;;;;;28.10;5.20;;;;;;;;;;6249180;22;20015;-81
2022/01/31 02:07:34;;;;;;;15.80;3.53;;;;;;;;;;6250652;22;19996;-82
2022/01/31 02:10:04;;;;;;;30.15;5.18;;;;;;;;;;6201826;22;20427;-80
2022/01/31 02:12:37;;;;;;;21.48;4.55;;;;;;;;;;6225297;22;20427;-81
2022/01/31 02:15:03;;;;;;;25.20;4.00;;;;;;;;;;6248931;22;20077;-80
2022/01/31 02:17:29;;;;;;;26.25;3.80;;;;;;;;;;6248584;22;20435;-80
2022/01/31 02:19:55;;;;;;;24.75;3.22;;;;;;;;;;6198563;22;20358;-80
2022/01/31 02:22:21;;;;;;;31.02;3.60;;;;;;;;;;6248738;22;20087;-80
2022/01/31 02:24:46;;;;;;;21.25;3.45;;;;;;;;;;6276002;22;20004;-80
2022/01/31 02:27:12;;;;;;;38.40;3.45;;;;;;;;;;6223527;22;19999;-80
2022/01/31 02:29:37;;;;;;;20.30;2.83;;;;;;;;;;6226569;22;20000;-79
2022/01/31 02:32:03;;;;;;;19.73;3.75;;;;;;;;;;6199808;22;20008;-81
2022/01/31 02:34:29;;;;;;;21.80;3.90;;;;;;;;;;6275618;22;20033;-81
2022/01/31 02:36:54;;;;;;;26.58;4.13;;;;;;;;;;6223560;22;20010;-80
2022/01/31 02:39:20;;;;;;;31.90;4.18;;;;;;;;;;6248489;22;20006;-80
2022/01/31 02:41:46;;;;;;;26.10;3.92;;;;;;;;;;6198052;22;20004;-80
2022/01/31 02:44:15;;;;;;;15.70;2.83;;;;;;;;;;6248107;22;20457;-80
2022/01/31 02:46:50;;;;;;;24.60;3.38;;;;;;;;;;6249711;22;19999;-81
2022/01/31 02:49:17;;;;;;;25.08;3.50;;;;;;;;;;6250124;22;20004;-81
2022/01/31 02:51:48;;;;;;;26.35;3.67;;;;;;;;;;6252288;22;19996;-81
2022/01/31 02:54:13;;;;;;;16.27;4.00;;;;;;;;;;6251287;22;20004;-81
2022/01/31 02:56:40;;;;;;;18.83;3.10;;;;;;;;;;6248714;22;20022;-81
2022/01/31 02:59:06;;;;;;;29.25;3.72;;;;;;;;;;6223338;22;20034;-81
2022/01/31 03:01:35;;;;;;;22.40;2.80;;;;;;;;;;6248544;22;20061;-81
2022/01/31 03:04:00;;;;;;;35.80;3.78;;;;;;;;;;6198963;22;20008;-80
2022/01/31 03:06:26;;;;;;;17.05;4.50;;;;;;;;;;6248435;22;20014;-81
2022/01/31 03:08:52;;;;;;;26.08;3.05;;;;;;;;;;6248579;22;19999;-81
2022/01/31 03:11:17;;;;;;;27.85;3.15;;;;;;;;;;6198732;22;20003;-83
2022/01/31 03:13:43;;;;;;;23.95;3.28;;;;;;;;;;6253582;22;20031;-81
2022/01/31 03:16:08;;;;;;;17.42;3.53;;;;;;;;;;6252562;22;20004;-81
2022/01/31 03:18:34;;;;;;;29.33;4.13;;;;;;;;;;6248535;22;20347;-80
2022/01/31 03:20:59;;;;;;;27.20;2.92;;;;;;;;;;6223130;22;20002;-81
2022/01/31 03:23:24;;;;;;;17.35;4.00;;;;;;;;;;6249450;22;20011;-81
2022/01/31 03:25:50;;;;;;;20.83;4.00;;;;;;;;;;6223843;22;20008;-80
2022/01/31 03:28:16;;;;;;;20.60;3.08;;;;;;;;;;6223519;22;20004;-80
2022/01/31 03:30:41;;;;;;;20.02;3.92;;;;;;;;;;6248298;22;20460;-80
2022/01/31 03:33:07;;;;;;;17.92;3.15;;;;;;;;;;6275633;22;20343;-80
2022/01/31 03:35:32;;;;;;;29.17;3.67;;;;;;;;;;6252280;22;20004;-81
2022/01/31 03:37:57;;;;;;;18.98;3.85;;;;;;;;;;6223340;22;20091;-81
2022/01/31 03:40:24;;;;;;;29.33;4.18;;;;;;;;;;6226200;22;20007;-81
2022/01/31 03:42:49;;;;;;;10.75;2.53;;;;;;;;;;6248792;22;20024;-80
2022/01/31 03:45:15;;;;;;;22.05;3.53;;;;;;;;;;6223622;22;20012;-80
2022/01/31 03:47:46;;;;;;;21.90;3.42;;;;;;;;;;6248698;22;20480;-82
2022/01/31 03:50:13;;;;;;;22.95;3.55;;;;;;;;;;6200709;22;20003;-81
2022/01/31 03:52:39;;;;;;;30.63;3.00;;;;;;;;;;6275978;22;20003;-80
2022/01/31 03:55:06;;;;;;;20.00;3.55;;;;;;;;;;6223153;22;20386;-80
2022/01/31 03:57:31;;;;;;;20.80;3.30;;;;;;;;;;6257182;22;20010;-80
2022/01/31 03:59:57;;;;;;;24.63;3.88;;;;;;;;;;6251503;22;20042;-81
2022/01/31 04:02:22;;;;;;;22.17;3.83;;;;;;;;;;6248744;22;20007;-81
2022/01/31 04:04:48;;;;;;;22.17;4.07;;;;;;;;;;6275325;22;20010;-82
2022/01/31 04:07:13;;;;;;;28.58;4.05;;;;;;;;;;6275241;22;20491;-81
2022/01/31 04:09:39;;;;;;;15.77;3.70;;;;;;;;;;6274923;22;20051;-81
2022/01/31 04:12:04;;;;;;;30.13;4.13;;;;;;;;;;6274966;22;20007;-80
2022/01/31 04:14:30;;;;;;;14.82;4.40;;;;;;;;;;6248361;22;20011;-82
2022/01/31 04:16:56;;;;;;;23.63;4.00;;;;;;;;;;6248413;22;20422;-81
2022/01/31 04:19:23;;;;;;;26.10;4.30;;;;;;;;;;6253541;22;20014;-80
2022/01/31 04:21:48;;;;;;;24.52;4.63;;;;;;;;;;6199725;22;20424;-81
2022/01/31 04:24:19;;;;;;;20.10;4.63;;;;;;;;;;6224274;22;20086;-80
2022/01/31 04:26:55;;;;;;;28.42;4.95;;;;;;;;;;6250956;22;20054;-81
2022/01/31 04:29:21;;;;;;;24.45;4.70;;;;;;;;;;6229272;22;19996;-80
2022/01/31 04:31:49;;;;;;;26.20;3.75;;;;;;;;;;6250452;22;20058;-81
2022/01/31 04:34:15;;;;;;;16.63;4.03;;;;;;;;;;6225399;22;20004;-80
2022/01/31 04:36:40;;;;;;;19.45;3.58;;;;;;;;;;6224440;22;20004;-79
2022/01/31 04:39:06;;;;;;;17.83;3.55;;;;;;;;;;6277308;22;20023;-80
2022/01/31 04:41:31;;;;;;;28.10;4.55;;;;;;;;;;6253617;22;20008;-81
2022/01/31 04:44:02;;;;;;;20.83;3.47;;;;;;;;;;6249501;22;20324;-80
2022/01/31 04:46:29;;;;;;;24.23;3.42;;;;;;;;;;6276534;22;20446;-81
2022/01/31 04:48:55;;;;;;;13.85;3.80;;;;;;;;;;6249849;22;20000;-80
2022/01/31 04:51:20;;;;;;;21.60;3.47;;;;;;;;;;6224428;22;20011;-80
2022/01/31 04:53:46;;;;;;;16.20;3.83;;;;;;;;;;6198990;22;20431;-81
2022/01/31 04:56:11;;;;;;;30.10;4.40;;;;;;;;;;6249530;22;20008;-80
2022/01/31 04:58:37;;;;;;;29.17;6.78;;;;;;;;;;6249547;22;20324;-80
2022/01/31 05:01:02;;;;;;;39.53;6.57;;;;;;;;;;6250336;22;20010;-80
2022/01/31 05:03:29;;;;;;;33.40;6.20;;;;;;;;;;6251471;22;20027;-81
2022/01/31 05:05:55;;;;;;;18.23;3.50;;;;;;;;;;6276196;22;20058;-80
2022/01/31 05:08:25;;;;;;;39.60;5.38;;;;;;;;;;6223792;22;20004;-81
2022/01/31 05:10:50;;;;;;;44.15;8.30;;;;;;;;;;6226045;22;20004;-80
2022/01/31 05:13:16;;;;;;;73.80;13.05;;;;;;;;;;6249215;22;20002;-80
2022/01/31 05:15:43;;;;;;;72.20;12.80;;;;;;;;;;6249380;22;20061;-80
2022/01/31 05:18:08;;;;;;;68.47;11.85;;;;;;;;;;6199223;22;20004;-80
2022/01/31 05:20:34;;;;;;;57.15;10.63;;;;;;;;;;6249164;22;20086;-81
2022/01/31 05:22:59;;;;;;;45.10;9.15;;;;;;;;;;6224363;22;20008;-80
2022/01/31 05:25:25;;;;;;;30.08;5.75;;;;;;;;;;6249615;22;20409;-79
2022/01/31 05:27:50;;;;;;;58.58;9.65;;;;;;;;;;6276268;22;20007;-81
2022/01/31 05:30:16;;;;;;;57.85;10.93;;;;;;;;;;6248896;22;20021;-80
2022/01/31 05:32:45;;;;;;;45.90;9.40;;;;;;;;;;6223916;22;20003;-80
2022/01/31 05:35:10;;;;;;;55.25;10.73;;;;;;;;;;6276057;22;20007;-80
2022/01/31 05:37:36;;;;;;;45.42;8.43;;;;;;;;;;6223279;22;20010;-81
2022/01/31 05:40:06;;;;;;;28.77;5.90;;;;;;;;;;6224234;22;20007;-80
2022/01/31 05:42:31;;;;;;;27.95;6.32;;;;;;;;;;6275924;22;20002;-80
2022/01/31 05:44:57;;;;;;;29.63;8.15;;;;;;;;;;6199436;22;20007;-79
2022/01/31 05:47:22;;;;;;;24.40;7.10;;;;;;;;;;6224416;22;20000;-80
2022/01/31 05:49:48;;;;;;;30.52;7.20;;;;;;;;;;6249484;22;20010;-80
2022/01/31 05:52:13;;;;;;;21.35;6.38;;;;;;;;;;6275506;22;20003;-80
2022/01/31 05:54:39;;;;;;;32.20;7.00;;;;;;;;;;6224531;22;20011;-80
2022/01/31 05:57:05;;;;;;;43.78;9.50;;;;;;;;;;6224385;22;20132;-80
2022/01/31 05:59:31;;;;;;;31.38;7.70;;;;;;;;;;6276143;22;20006;-81
2022/01/31 06:01:58;;;;;;;33.90;7.88;;;;;;;;;;6223651;22;20000;-80
2022/01/31 06:04:24;;;;;;;31.23;8.52;;;;;;;;;;6250675;22;20010;-79
2022/01/31 06:06:49;;;;;;;50.40;11.70;;;;;;;;;;6225065;22;20030;-79
2022/01/31 06:09:15;;;;;;;51.08;13.70;;;;;;;;;;6229417;22;20007;-80
2022/01/31 06:11:41;;;;;;;49.88;14.07;;;;;;;;;;6225508;22;20004;-80
2022/01/31 06:14:08;;;;;;;41.78;12.50;;;;;;;;;;6228160;22;20417;-79
2022/01/31 06:16:34;;;;;;;36.10;11.48;;;;;;;;;;6207310;22;20004;-79
2022/01/31 06:18:59;;;;;;;47.60;11.20;;;;;;;;;;6231272;22;20003;-80
2022/01/31 06:21:25;;;;;;;42.53;11.23;;;;;;;;;;6228054;22;20011;-79
2022/01/31 06:23:51;;;;;;;40.25;11.18;;;;;;;;;;6246015;23;20014;-80
2022/01/31 06:26:16;;;;;;;37.17;11.70;;;;;;;;;;6283862;22;20035;-80
2022/01/31 06:28:42;;;;;;;34.03;10.15;;;;;;;;;;6283987;22;20000;-80
2022/01/31 06:31:07;;;;;;;39.83;12.55;;;;;;;;;;6245774;23;20000;-80
2022/01/31 06:33:33;;;;;;;36.50;11.20;;;;;;;;;;6274263;22;20061;-81
2022/01/31 06:35:59;;;;;;;44.33;10.60;;;;;;;;;;6244515;23;20316;-80
2022/01/31 06:38:25;;;;;;;43.42;10.23;;;;;;;;;;6219468;22;20020;-82
2022/01/31 06:40:51;;;;;;;38.08;11.07;;;;;;;;;;6243546;23;20064;-81
2022/01/31 06:43:17;;;;;;;33.28;8.82;;;;;;;;;;6218260;23;20078;-80
2022/01/31 06:45:42;;;;;;;36.95;7.03;;;;;;;;;;6249146;22;20022;-82
2022/01/31 06:48:08;;;;;;;36.35;7.05;;;;;;;;;;6243713;23;20377;-81
2022/01/31 06:50:34;;;;;;;30.70;7.38;;;;;;;;;;6249667;22;20130;-80
2022/01/31 06:53:01;;;;;;;31.58;7.60;;;;;;;;;;6276533;22;20008;-78
2022/01/31 06:55:28;;;;;;;36.75;7.72;;;;;;;;;;6275448;22;20427;-79
2022/01/31 06:57:54;;;;;;;37.95;8.65;;;;;;;;;;6243510;23;20012;-79
2022/01/31 07:00:20;;;;;;;35.35;8.48;;;;;;;;;;6193031;22;20011;-79
2022/01/31 07:02:46;;;;;;;39.30;8.40;;;;;;;;;;6218130;23;20004;-79
2022/01/31 07:05:13;;;;;;;33.03;9.05;;;;;;;;;;6217899;23;20343;-80
2022/01/31 07:07:38;;;;;;;33.35;7.13;;;;;;;;;;6221954;22;20004;-80
2022/01/31 07:10:05;;;;;;;30.38;7.15;;;;;;;;;;6243406;23;20030;-80
2022/01/31 07:12:36;;;;;;;41.83;9.02;;;;;;;;;;6276258;22;20007;-79
2022/01/31 07:15:03;;;;;;;27.48;6.68;;;;;;;;;;6226401;23;20011;-80
2022/01/31 07:17:28;;;;;;;30.30;6.90;;;;;;;;;;6276611;22;20003;-80
2022/01/31 07:19:55;;;;;;;31.73;6.90;;;;;;;;;;6274876;22;20411;-80
2022/01/31 07:22:25;;;;;;;34.75;6.55;;;;;;;;;;6275615;22;20003;-82
2022/01/31 07:25:01;;;;;;;28.98;5.70;;;;;;;;;;6196078;23;20013;-81
2022/01/31 07:27:27;;;;;;;39.92;9.77;;;;;;;;;;6246759;22;20146;-81
2022/01/31 07:29:53;;;;;;;31.55;6.80;;;;;;;;;;6244427;23;20355;-80
2022/01/31 07:32:19;;;;;;;22.05;5.25;;;;;;;;;;6243481;23;20060;-80
2022/01/31 07:34:46;;;;;;;29.90;5.85;;;;;;;;;;6248574;23;20460;-80
2022/01/31 07:37:12;;;;;;;40.17;7.05;;;;;;;;;;6269358;22;20343;-80
2022/01/31 07:39:41;;;;;;;38.35;7.85;;;;;;;;;;6222324;22;20007;-81
2022/01/31 07:42:07;;;;;;;36.50;7.60;;;;;;;;;;6275569;22;20006;-81
2022/01/31 07:44:32;;;;;;;40.22;7.45;;;;;;;;;;6246738;22;20001;-83
2022/01/31 07:46:58;;;;;;;25.60;5.70;;;;;;;;;;6244348;23;20000;-80
2022/01/31 07:49:23;;;;;;;22.38;6.18;;;;;;;;;;6219680;22;20023;-80
2022/01/31 07:51:49;;;;;;;37.50;6.68;;;;;;;;;;6243324;23;20079;-80
2022/01/31 07:54:15;;;;;;;23.95;6.55;;;;;;;;;;6272624;22;20003;-82
2022/01/31 07:56:41;;;;;;;19.77;4.57;;;;;;;;;;6238575;22;20037;-82
2022/01/31 07:59:06;;;;;;;45.45;6.40;;;;;;;;;;6228212;23;20004;-83
2022/01/31 08:01:32;;;;;;;26.40;5.85;;;;;;;;;;6225307;22;20059;-82
2022/01/31 08:03:57;;;;;;;36.17;7.32;;;;;;;;;;6246276;23;20004;-81
2022/01/31 08:06:22;;;;;;;30.08;5.78;;;;;;;;;;6274312;22;20070;-81
2022/01/31 08:08:50;;;;;;;34.05;8.48;;;;;;;;;;6250569;23;20007;-82
2022/01/31 08:11:16;;;;;;;33.20;5.68;;;;;;;;;;6249378;23;19996;-82
2022/01/31 08:13:41;;;;;;;32.08;7.25;;;;;;;;;;6251380;22;20312;-81
2022/01/31 08:18:32;;;;;;;40.80;10.07;;;;;;;;;;6283696;22;20004;-82
2022/01/31 08:20:59;;;;;;;55.97;12.27;;;;;;;;;;6280179;22;20000;-83
2022/01/31 08:23:24;;;;;;;46.42;11.38;;;;;;;;;;6223744;22;20454;-83
2022/01/31 08:25:51;;;;;;;31.20;9.30;;;;;;;;;;6247915;23;20012;-82
2022/01/31 08:28:17;;;;;;;42.15;10.52;;;;;;;;;;6225154;23;20012;-83
2022/01/31 08:30:57;;;;;;;57.55;11.77;;;;;;;;;;6276620;22;20000;-84
2022/01/31 08:33:34;;;;;;;60.90;11.82;;;;;;;;;;6277118;22;20006;-82
2022/01/31 08:36:03;;;;;;;41.10;7.20;;;;;;;;;;6279032;22;19999;-80
2022/01/31 08:38:29;;;;;;;72.78;14.02;;;;;;;;;;6282536;22;20007;-82
2022/01/31 08:40:55;;;;;;;32.55;6.25;;;;;;;;;;6285787;22;19996;-82
2022/01/31 08:43:21;;;;;;;48.78;12.15;;;;;;;;;;6281318;22;20415;-83
2022/01/31 08:45:48;;;;;;;56.67;12.25;;;;;;;;;;6247616;23;20003;-84
2022/01/31 08:48:13;;;;;;;68.70;15.75;;;;;;;;;;6246603;23;20023;-85
2022/01/31 08:50:39;;;;;;;134.48;29.25;;;;;;;;;;6226719;22;20009;-82
2022/01/31 08:53:04;;;;;;;57.13;9.48;;;;;;;;;;6220243;23;20007;-82
2022/01/31 08:55:30;;;;;;;39.33;9.45;;;;;;;;;;6247577;22;20008;-81
2022/01/31 08:57:57;;;;;;;57.20;11.00;;;;;;;;;;6220961;23;20000;-80
2022/01/31 09:00:33;;;;;;;31.55;6.50;;;;;;;;;;6249638;22;20008;-80
2022/01/31 09:03:05;;;;;;;44.40;9.85;;;;;;;;;;6282230;22;19999;-81
2022/01/31 09:05:31;;;;;;;41.83;10.02;;;;;;;;;;6222894;22;20008;-80
2022/01/31 09:07:56;;;;;;;31.50;8.77;;;;;;;;;;6219097;23;20054;-81
2022/01/31 09:10:22;;;;;;;27.10;5.65;;;;;;;;;;6245087;22;20309;-80
2022/01/31 09:12:47;;;;;;;29.75;7.72;;;;;;;;;;6244595;23;20138;-81
2022/01/31 09:15:13;;;;;;;37.95;8.40;;;;;;;;;;6244081;23;20008;-82
2022/01/31 09:17:40;;;;;;;45.97;10.05;;;;;;;;;;6253560;22;20002;-81
2022/01/31 09:20:06;;;;;;;39.92;9.25;;;;;;;;;;6263220;23;20015;-81
2022/01/31 09:22:32;;;;;;;31.85;8.45;;;;;;;;;;6238948;22;20008;-81
2022/01/31 09:24:57;;;;;;;31.65;6.65;;;;;;;;;;6278596;22;20110;-80
2022/01/31 09:27:23;;;;;;;40.80;8.70;;;;;;;;;;6245445;22;20426;-81
2022/01/31 09:29:48;;;;;;;35.85;7.38;;;;;;;;;;6218831;23;20008;-80
2022/01/31 09:32:15;;;;;;;39.80;7.95;;;;;;;;;;6218960;23;20008;-82
2022/01/31 09:34:40;;;;;;;43.53;7.15;;;;;;;;;;6199387;22;20034;-80
2022/01/31 09:37:06;;;;;;;39.50;7.35;;;;;;;;;;6244821;23;20471;-80
2022/01/31 09:39:32;;;;;;;30.00;7.07;;;;;;;;;;6221455;22;20347;-78
2022/01/31 09:41:58;;;;;;;38.05;6.75;;;;;;;;;;6244051;23;20043;-82
2022/01/31 09:44:40;;;;;;;32.15;6.70;;;;;;;;;;6274563;22;20003;-80
2022/01/31 09:47:18;;;;;;;27.25;5.35;;;;;;;;;;6222303;23;20000;-81
2022/01/31 09:49:43;;;;;;;35.75;8.35;;;;;;;;;;6226878;22;20023;-78
2022/01/31 09:52:10;;;;;;;40.03;7.03;;;;;;;;;;6244025;23;20004;-77
2022/01/31 09:54:35;;;;;;;37.85;7.55;;;;;;;;;;6247254;22;20000;-80
2022/01/31 09:57:01;;;;;;;31.50;7.70;;;;;;;;;;6244056;23;20035;-79
2022/01/31 09:59:26;;;;;;;33.03;5.78;;;;;;;;;;6271837;22;20007;-80
2022/01/31 10:01:54;;;;;;;34.70;5.75;;;;;;;;;;6243625;23;20005;-80
2022/01/31 10:04:22;;;;;;;41.30;10.02;;;;;;;;;;6244064;22;20004;-80
2022/01/31 10:06:55;;;;;;;30.85;7.82;;;;;;;;;;6245088;23;20004;-79
2022/01/31 10:09:23;;;;;;;38.72;8.48;;;;;;;;;;6218841;22;20395;-79
2022/01/31 10:17:42;;;;;;;27.92;7.40;;;;;;;;;;6274894;22;20092;-79
2022/01/31 10:20:29;;;;;;;26.77;6.45;;;;;;;;;;6211813;23;20842;-79
2022/01/31 10:23:06;;;;;;;35.10;7.57;;;;;;;;;;6265038;22;20024;-80
2022/01/31 10:25:31;;;;;;;26.92;5.55;;;;;;;;;;6275448;22;20437;-80
2022/01/31 10:27:57;;;;;;;29.13;4.70;;;;;;;;;;6223974;22;20039;-79
2022/01/31 10:30:25;;;;;;;33.92;6.03;;;;;;;;;;6223339;22;20004;-79
2022/01/31 10:32:51;;;;;;;36.15;6.97;;;;;;;;;;6248479;22;20346;-79
2022/01/31 10:35:19;;;;;;;35.78;7.55;;;;;;;;;;6275208;22;20423;-80
2022/01/31 10:37:44;;;;;;;28.35;6.65;;;;;;;;;;6223600;22;19996;-79
2022/01/31 10:54:24;;;;;;;45.88;10.18;;;;;;;;;;6248879;22;20021;-79
2022/01/31 10:56:51;;;;;;;37.33;7.70;;;;;;;;;;6274681;22;20078;-81
2022/01/31 10:59:22;;;;;;;35.80;5.10;;;;;;;;;;6248332;22;20007;-80
2022/01/31 11:01:50;;;;;;;28.13;5.20;;;;;;;;;;6224033;22;20417;-79
2022/01/31 11:04:15;;;;;;;25.58;6.05;;;;;;;;;;6223063;22;20006;-79
2022/01/31 11:06:49;;;;;;;39.83;8.35;;;;;;;;;;6223072;22;20419;-79
2022/01/31 11:09:16;;;;;;;28.42;5.15;;;;;;;;;;6251727;22;20007;-79
2022/01/31 11:11:48;;;;;;;25.00;4.25;;;;;;;;;;6248030;22;20074;-80
2022/01/31 11:14:14;;;;;;;25.27;5.22;;;;;;;;;;6223660;22;20004;-80
2022/01/31 11:16:42;;;;;;;25.73;4.82;;;;;;;;;;6248139;22;20403;-79
2022/01/31 11:19:09;;;;;;;23.83;5.10;;;;;;;;;;6223237;22;20414;-80
2022/01/31 11:21:39;;;;;;;60.80;10.63;;;;;;;;;;6248585;22;20015;-81
2022/01/31 11:24:11;;;;;;;38.67;8.95;;;;;;;;;;6248608;22;20023;-80
2022/01/31 11:26:38;;;;;;;40.00;8.48;;;;;;;;;;6224771;22;20030;-81
2022/01/31 11:29:05;;;;;;;35.58;8.52;;;;;;;;;;6222896;22;20058;-82
2022/01/31 11:31:31;;;;;;;33.95;6.60;;;;;;;;;;6227780;22;20014;-80
2022/01/31 11:33:58;;;;;;;30.83;6.28;;;;;;;;;;6247934;22;19996;-80
2022/01/31 11:36:24;;;;;;;20.23;5.72;;;;;;;;;;6223089;22;20018;-79
2022/01/31 11:38:50;;;;;;;38.35;8.02;;;;;;;;;;6275064;22;20004;-79
2022/01/31 11:41:15;;;;;;;35.10;7.43;;;;;;;;;;6223261;22;19999;-81
2022/01/31 11:43:41;;;;;;;25.45;6.50;;;;;;;;;;6223048;22;20015;-80
2022/01/31 11:46:06;;;;;;;40.17;10.02;;;;;;;;;;6222777;22;20007;-81
2022/01/31 11:48:32;;;;;;;30.83;6.07;;;;;;;;;;6199222;22;20004;-80
2022/01/31 11:51:01;;;;;;;33.08;7.82;;;;;;;;;;6275727;22;20441;-80
2022/01/31 11:53:36;;;;;;;39.95;7.60;;;;;;;;;;6277776;22;20007;-80
2022/01/31 11:56:21;;;;;;;28.08;6.45;;;;;;;;;;6248181;22;20011;-79
2022/01/31 11:58:48;;;;;;;33.72;7.28;;;;;;;;;;6274894;22;20430;-79
2022/01/31 12:01:14;;;;;;;29.83;7.53;;;;;;;;;;6248095;22;20011;-79
2022/01/31 12:03:59;;;;;;;36.03;8.55;;;;;;;;;;6275178;22;20003;-78
2022/01/31 12:06:26;;;;;;;26.45;6.15;;;;;;;;;;6223409;22;20015;-79
2022/01/31 12:08:52;;;;;;;28.92;5.80;;;;;;;;;;6258008;22;19992;-79
2022/01/31 12:11:25;;;;;;;31.17;7.38;;;;;;;;;;6285268;22;20007;-81
2022/01/31 12:13:56;;;;;;;31.65;7.72;;;;;;;;;;6225707;22;20004;-80
2022/01/31 12:20:15;;;;;;;29.42;6.72;;;;;;;;;;6274684;22;19907;-79
2022/01/31 12:22:29;;;;;;;23.27;5.85;;;;;;;;;;6238514;22;20095;-78
2022/01/31 12:24:54;;;;;;;27.80;7.13;;;;;;;;;;6251863;22;20007;-79
2022/01/31 12:27:26;;;;;;;31.67;6.72;;;;;;;;;;6248470;22;20004;-81
2022/01/31 12:30:01;;;;;;;41.47;7.00;;;;;;;;;;6248245;22;20066;-79
2022/01/31 12:32:34;;;;;;;40.47;9.45;;;;;;;;;;6247869;22;20374;-79
2022/01/31 12:35:11;;;;;;;29.70;7.93;;;;;;;;;;6222703;22;19996;-79
2022/01/31 12:37:49;;;;;;;34.05;6.55;;;;;;;;;;6248084;22;20004;-79
2022/01/31 12:40:18;;;;;;;34.78;7.32;;;;;;;;;;6275217;22;20493;-79
2022/01/31 12:42:48;;;;;;;21.77;5.00;;;;;;;;;;6249710;22;20004;-79
2022/01/31 12:45:17;;;;;;;24.05;6.22;;;;;;;;;;6276438;22;20008;-79
2022/01/31 12:48:20;;;;;;;36.80;6.53;;;;;;;;;;6224384;22;20011;-79
2022/01/31 12:50:48;;;;;;;32.38;7.45;;;;;;;;;;6224728;22;20052;-80
2022/01/31 12:56:02;;;;;;;28.33;5.93;;;;;;;;;;6277047;22;20042;-79
2022/01/31 12:58:38;;;;;;;27.40;5.88;;;;;;;;;;6200218;22;20003;-79
2022/01/31 13:01:26;;;;;;;36.38;7.20;;;;;;;;;;6249347;22;20007;-81
2022/01/31 13:03:53;;;;;;;42.67;7.68;;;;;;;;;;6251667;22;20332;-80
2022/01/31 13:06:38;;;;;;;33.03;7.22;;;;;;;;;;6248864;22;20004;-80
2022/01/31 13:09:15;;;;;;;43.03;11.30;;;;;;;;;;6249333;22;20004;-80
2022/01/31 13:11:43;;;;;;;28.05;7.63;;;;;;;;;;6224998;22;20061;-79
2022/01/31 13:14:13;;;;;;;38.40;8.68;;;;;;;;;;6224551;22;20445;-79
2022/01/31 13:16:43;;;;;;;37.53;9.77;;;;;;;;;;6223851;22;20417;-79
2022/01/31 13:19:21;;;;;;;;;;;;;;;;;;6224599;22;20351;-79
2022/01/31 13:21:48;;;;;;;37.15;8.30;;;;;;;;;;6278563;22;19911;-79
2022/01/31 13:24:13;;;;;;;34.05;7.13;;;;;;;;;;6249070;22;20083;-79
2022/01/31 13:26:48;;;;;;;36.00;8.52;;;;;;;;;;6223926;22;20019;-80
2022/01/31 13:29:38;;;;;;;40.78;9.13;;;;;;;;;;6248983;22;20000;-80
2022/01/31 13:32:14;;;;;;;38.88;10.65;;;;;;;;;;6249094;22;20000;-79
2022/01/31 13:34:41;;;;;;;38.75;9.27;;;;;;;;;;6224204;22;20088;-81
2022/01/31 13:37:29;;;;;;;42.38;10.43;;;;;;;;;;6223991;22;20015;-79
2022/01/31 13:39:55;;;;;;;38.53;10.80;;;;;;;;;;6248880;22;20000;-80
2022/01/31 13:42:24;;;;;;;40.75;10.35;;;;;;;;;;6226453;22;20027;-80
2022/01/31 13:44:52;;;;;;;39.70;9.40;;;;;;;;;;6250054;22;20004;-80
2022/01/31 13:47:17;;;;;;;43.10;9.90;;;;;;;;;;6199851;22;20008;-80
2022/01/31 13:49:50;;;;;;;55.97;11.00;;;;;;;;;;6222949;22;20279;-81
2022/01/31 13:52:16;;;;;;;32.00;9.18;;;;;;;;;;6275976;22;20004;-81
2022/01/31 13:54:42;;;;;;;31.10;8.63;;;;;;;;;;6249118;22;20067;-81
2022/01/31 13:57:08;;;;;;;38.95;8.57;;;;;;;;;;6249156;22;20054;-80
2022/01/31 13:59:33;;;;;;;28.13;7.93;;;;;;;;;;6198295;22;20008;-82
2022/01/31 14:02:09;;;;;;;51.65;13.10;;;;;;;;;;6276205;22;20088;-81
2022/01/31 14:04:36;;;;;;;29.95;8.20;;;;;;;;;;6225157;22;20012;-78
2022/01/31 14:07:01;;;;;;;60.95;18.80;;;;;;;;;;6276648;22;20004;-78
2022/01/31 14:09:31;;;;;;;53.67;14.05;;;;;;;;;;6276044;22;20073;-77
2022/01/31 14:11:57;;;;;;;94.35;21.52;;;;;;;;;;6223841;22;20415;-79
2022/01/31 14:14:23;;;;;;;58.08;12.93;;;;;;;;;;6248356;22;20137;-79
2022/01/31 14:16:49;;;;;;;68.70;16.60;;;;;;;;;;6248506;22;20004;-79
2022/01/31 14:19:14;;;;;;;61.30;15.07;;;;;;;;;;6222861;22;20003;-80
2022/01/31 14:21:42;;;;;;;46.78;10.43;;;;;;;;;;6223043;22;20447;-78
2022/01/31 14:24:08;;;;;;;52.72;10.35;;;;;;;;;;6248524;22;20014;-78
2022/01/31 14:26:55;;;;;;;45.75;9.63;;;;;;;;;;6248522;22;20004;-79
2022/01/31 14:29:20;;;;;;;30.92;8.15;;;;;;;;;;6224470;22;20138;-78
2022/01/31 14:31:49;;;;;;;39.38;8.88;;;;;;;;;;6223325;22;19996;-78
2022/01/31 14:34:16;;;;;;;50.85;11.95;;;;;;;;;;6223448;22;20059;-78
2022/01/31 14:36:58;;;;;;;134.63;27.00;;;;;;;;;;6223203;22;19996;-78
2022/01/31 14:42:46;;;;;;;55.33;14.05;;;;;;;;;;6249500;22;19995;-77
2022/01/31 14:48:01;;;;;;;42.00;11.13;;;;;;;;;;6231549;22;20060;-78
2022/01/31 14:50:30;;;;;;;40.40;9.15;;;;;;;;;;6248350;22;20078;-78
2022/01/31 14:52:56;;;;;;;47.95;11.00;;;;;;;;;;6275324;22;20075;-78
2022/01/31 14:55:24;;;;;;;40.90;10.77;;;;;;;;;;6198135;22;20409;-78
2022/01/31 14:57:50;;;;;;;44.75;11.23;;;;;;;;;;6229192;22;20423;-77
2022/01/31 15:00:18;;;;;;;37.75;9.23;;;;;;;;;;6230683;22;20070;-78
2022/01/31 15:02:43;;;;;;;32.08;10.30;;;;;;;;;;6222524;22;20079;-76
2022/01/31 15:05:11;;;;;;;39.53;10.32;;;;;;;;;;6248227;22;20004;-77
2022/01/31 15:07:36;;;;;;;35.63;9.13;;;;;;;;;;6223338;22;20069;-78